• Join FlightAware (Why Join?)
  • Login
  • US Flag 
03:56PM EDT


 

Airport Tracker/Info


-or-


 

Live Flight TrackerFlight Track Log ✈ SWA2280 ✈ 20-Apr-2013 ✈ KDAL - KSAT

Flight Track Log - Related Links

Times and Time Zones

All times are in EDT time to prevent confusion due to time zone crossing. See the SWA2280 flight status page for this flight to view local times or setup timezone preferences in your user account.

Time Position Orientation Groundspeed Altitude Reporting Facility
EDT Latitude Longitude Course Direction KTS MPH feet Rate Location/Type
07:52PM 32.7833 -96.7667 128° Southeast 204 235 7,500  Level Dallas / Fort Worth TRACON
07:55PM 32.6108 -96.8633 205° Southwest 287 330 12,000 2,100 Climbing Fort Worth Center
07:57PM 32.4547 -96.9581 207° Southwest 330 380 17,000 2,100 Climbing Fort Worth Center
07:58PM 32.3631 -97.0125 207° Southwest 337 388 18,400 2,400 Climbing Fort Worth Center
07:59PM 32.2817 -97.0547 204° Southwest 342 394 21,800 3,300 Climbing Fort Worth Center
08:00PM 32.1669 -97.0625 183° South 371 427 25,000 3,000 Climbing Fort Worth Center
08:01PM 32.0542 -97.0678 182° South 396 456 27,800 1,500 Climbing Fort Worth Center
08:02PM 31.9456 -97.0903 190° South 402 463 28,000 60 Climbing Fort Worth Center
08:03PM 31.8392 -97.1222 194° South 397 457 28,000  Level Fort Worth Center
08:04PM 31.7328 -97.1519 193° South 397 457 28,000  Level Fort Worth Center
08:05PM 31.6222 -97.1817 193° South 397 457 28,000  Level Fort Worth Center
08:05PM 31.5861 -97.1925 194° South 400 460 28,000  Level Houston Center
08:06PM 31.4764 -97.2236 194° South 401 461 28,000  Level Houston Center
08:07PM 31.3667 -97.2539 193° South 400 460 28,000  Level Houston Center
08:08PM 31.2556 -97.2850 193° South 406 467 28,000  Level Houston Center
08:09PM 31.1450 -97.3161 194° South 406 467 28,000  Level Houston Center
08:10PM 31.0364 -97.3472 194° South 404 465 28,000  Level Houston Center
08:11PM 30.9286 -97.3781 194° South 407 468 28,000  Level Houston Center
08:12PM 30.8019 -97.4125 193° South 404 465 28,000  Level Houston Center
08:13PM 30.6928 -97.4431 194° South 401 461 28,000  Level Houston Center
08:14PM 30.5811 -97.4739 193° South 407 468 28,000  Level Houston Center
08:15PM 30.4694 -97.5044 193° South 408 470 28,000 -1,080 Level Houston Center
08:16PM 30.3606 -97.5419 197° South 403 464 25,900 -2,220 Descending Houston Center
08:17PM 30.2739 -97.6044 212° Southwest 367 422 23,500 -2,340 Descending Houston Center
08:18PM 30.1892 -97.6611 210° Southwest 352 405 21,200 -2,280 Descending Houston Center
08:19PM 30.1078 -97.7167 211° Southwest 339 390 18,900 -2,340 Descending Houston Center
08:20PM 30.0197 -97.7772 211° Southwest 339 390 16,500 -2,400 Descending Houston Center
08:21PM 29.9353 -97.8356 211° Southwest 329 379 14,000 -1,740 Descending Houston Center
08:22PM 29.8772 -97.9089 228° Southwest 313 360 13,000 -900 Descending Houston Center
08:23PM 29.8386 -98.0011 244° Southwest 317 365 12,200 -900 Descending Houston Center
08:24PM 29.7939 -98.1061 244° Southwest 319 367 11,100 -1,020 Descending Houston Center
08:25PM 29.7581 -98.1908 244° Southwest 317 365 10,200 -1,140 Descending Houston Center
08:26PM 29.7244 -98.2717 244° Southwest 283 326 9,000 -1,260 Descending Houston Center
08:27PM 29.6917 -98.3481 244° Southwest 268 308 7,700 -1,320 Descending Houston Center
08:28PM 29.6586 -98.4261 244° Southwest 255 293 6,300 -1,140 Descending Houston Center
08:30PM 29.6747 -98.4961 285° West 239 275 5,300 -1,140 Descending Houston Center
08:30PM 29.7147 -98.5514 310° West 244 281 4,000 -1,080 Descending Houston Center
08:31PM 29.6864 -98.5847 226° Southwest 190 219 3,200 -600 Descending Houston Center
08:32PM 29.6356 -98.5853 181° South 171 197 2,800 -360 Descending Houston Center
08:34PM 29.5994 -98.5589 148° Southeast 158 182 2,500 -540 Descending Houston Center
08:35PM 29.5750 -98.5264 131° Southeast 138 159 1,800 -720 Descending Houston Center
08:36PM 29.5517 -98.4947 130° Southeast 124 143 1,100 -540 Descending Houston Center
08:37PM 29.5342 -98.4725 132° Southeast 121 139 800 -300 Descending Houston Center
08:39PM 29.5333 -98.4667 16° North  Level FlightAware Approximate
08:46PM 29.5340 -98.4691 16° North  Level Estimated